Sea Drift — WDC2818 — position and weather

sailwx.info

Track history (hours):
 
Tides and Currents Weather Stations Pressure Air Temp Water Temp Dewpoint Dewpoint Depression Visibility Wind Speed Wind Dir Waves Ship Positions

Sea Drift

Owner: Marquette Transportation Company Gulf-Inland, LLC, Jefferson, LA. More information available from US FCC via Universal Licensing System and Coast Guard Vessel Documentation Center.

Last reported at 2016-Sep-26 08:33 UTC. Time now 2016-Sep-28 01:52 UTC.
Position N 29°51' W 091°55'.

Length 23 m; draft 3 m.

Type: Towing. MMSI: 366998080.

Date/timePositionNaut miles runAvg speedWind from/ knotsBaromVisibWave heightAir tempDewpointWater temp
2016-Sep-26 08:33N 29°51' W 091°55'25 4.1
2016-Sep-26 02:33N 29°53' W 092°24'5 4.8
2016-Sep-26 01:33N 29°54' W 092°30'31 3.8
2016-Sep-25 17:27N 29°56' W 093°05'4 3.9
2016-Sep-25 16:33N 29°56' W 093°09'4 3.6
2016-Sep-25 15:33N 29°59' W 093°12'4 3.7
2016-Sep-25 14:33N 30°02' W 093°14'6 2.9
2016-Sep-25 12:33N 30°06' W 093°18'0 0.1
2016-Sep-25 11:33N 30°06' W 093°18'0 0.1
2016-Sep-25 10:33N 30°06' W 093°18'2 1.9
2016-Sep-25 09:34N 30°05' W 093°20'6 3.2
2016-Sep-25 07:34N 30°04' W 093°27'12 4.0
2016-Sep-25 04:34N 30°04' W 093°41'70 2.1
2016-Sep-23 19:31N 29°31' W 094°53'72 4.8
2016-Sep-23 04:31N 30°04' W 093°39'6 5.9
2016-Sep-23 03:34N 30°04' W 093°32'6 5.5
2016-Sep-23 02:34N 30°04' W 093°26'5 4.8
2016-Sep-23 01:34N 30°04' W 093°21'4 3.6
2016-Sep-23 00:34N 30°04' W 093°16'2 1.9
2016-Sep-22 23:33N 30°03' W 093°16'58 5.2
2016-Sep-22 12:34N 29°47' W 092°12'64 2.4
2016-Sep-21 09:33N 30°25' W 091°12'  
2016-Sep-17 10:34N 29°50' W 091°59'4 4.5
2016-Sep-17 09:34N 29°49' W 092°03'5 4.7
2016-Sep-17 08:33N 29°47' W 092°08'5 4.8
2016-Sep-17 07:34N 29°48' W 092°14'8 4.0
2016-Sep-17 05:33N 29°52' W 092°22'4 4.4
2016-Sep-17 04:34N 29°53' W 092°27'42 3.8
2016-Sep-16 17:34N 30°02' W 093°14'5 2.6
2016-Sep-16 15:34N 30°06' W 093°18'5 1.6
2016-Sep-16 12:33N 30°04' W 093°23'11 3.8
2016-Sep-16 09:33N 30°04' W 093°37'  
Track history (hours):
 
Tides and Currents Weather Stations Pressure Air Temp Water Temp Dewpoint Dewpoint Depression Visibility Wind Speed Wind Dir Waves Ship Positions

Sea Drift

Owner: Marquette Transportation Company Gulf-Inland, LLC, Jefferson, LA. More information available from US FCC via Universal Licensing System and Coast Guard Vessel Documentation Center.

Last reported at 2016-Sep-26 08:33 UTC. Time now 2016-Sep-28 01:52 UTC.
Position N 29°51' W 091°55'.

Length 23 m; draft 3 m.

Type: Towing. MMSI: 366998080.

Date/timePositionNaut miles runAvg speedWind from/ knotsBaromVisibWave heightAir tempDewpointWater temp
2016-Sep-26 08:33N 29°51' W 091°55'25 4.1
2016-Sep-26 02:33N 29°53' W 092°24'5 4.8
2016-Sep-26 01:33N 29°54' W 092°30'31 3.8
2016-Sep-25 17:27N 29°56' W 093°05'4 3.9
2016-Sep-25 16:33N 29°56' W 093°09'4 3.6
2016-Sep-25 15:33N 29°59' W 093°12'4 3.7
2016-Sep-25 14:33N 30°02' W 093°14'6 2.9
2016-Sep-25 12:33N 30°06' W 093°18'0 0.1
2016-Sep-25 11:33N 30°06' W 093°18'0 0.1
2016-Sep-25 10:33N 30°06' W 093°18'2 1.9
2016-Sep-25 09:34N 30°05' W 093°20'6 3.2
2016-Sep-25 07:34N 30°04' W 093°27'12 4.0
2016-Sep-25 04:34N 30°04' W 093°41'70 2.1
2016-Sep-23 19:31N 29°31' W 094°53'72 4.8
2016-Sep-23 04:31N 30°04' W 093°39'6 5.9
2016-Sep-23 03:34N 30°04' W 093°32'6 5.5
2016-Sep-23 02:34N 30°04' W 093°26'5 4.8
2016-Sep-23 01:34N 30°04' W 093°21'4 3.6
2016-Sep-23 00:34N 30°04' W 093°16'2 1.9
2016-Sep-22 23:33N 30°03' W 093°16'58 5.2
2016-Sep-22 12:34N 29°47' W 092°12'64 2.4
2016-Sep-21 09:33N 30°25' W 091°12'  
2016-Sep-17 10:34N 29°50' W 091°59'4 4.5
2016-Sep-17 09:34N 29°49' W 092°03'5 4.7
2016-Sep-17 08:33N 29°47' W 092°08'5 4.8
2016-Sep-17 07:34N 29°48' W 092°14'8 4.0
2016-Sep-17 05:33N 29°52' W 092°22'4 4.4
2016-Sep-17 04:34N 29°53' W 092°27'42 3.8
2016-Sep-16 17:34N 30°02' W 093°14'5 2.6
2016-Sep-16 15:34N 30°06' W 093°18'5 1.6
2016-Sep-16 12:33N 30°04' W 093°23'11 3.8
2016-Sep-16 09:33N 30°04' W 093°37'  

Dump ship's entire track history